Time;durP1;ratioP1;P1;durP2;ratioP2;P2;SDS_P1;SDS_P2;PMS_P1;PMS_P2;Temp;Humidity;BMP_temperature;BMP_pressure;BME280_temperature;BME280_humidity;BME280_pressure;Samples;Min_cycle;Max_cycle;Signal;HPM_P1;HPM_P2
2024/03/01 00:01:36;;;;;;;47.00;31.85;;;;;;;;;;4901125;29;20126;-95
2024/03/01 00:04:02;;;;;;;41.25;27.65;;;;;;;;;;4911808;29;20060;-92
2024/03/01 00:06:29;;;;;;;42.53;26.73;;;;;;;;;;4927408;29;20081;-94
2024/03/01 00:08:55;;;;;;;52.47;34.97;;;;;;;;;;4909782;29;20040;-93
2024/03/01 00:11:21;;;;;;;49.63;32.35;;;;;;;;;;4907185;29;20032;-95
2024/03/01 00:13:47;;;;;;;52.53;33.10;;;;;;;;;;4905484;29;20087;-95
2024/03/01 00:16:13;;;;;;;60.47;31.70;;;;;;;;;;4904402;29;20036;-94
2024/03/01 00:18:40;;;;;;;45.17;29.98;;;;;;;;;;4904284;29;20119;-95
2024/03/01 00:21:06;;;;;;;60.42;35.25;;;;;;;;;;4904278;29;20067;-94
2024/03/01 00:23:33;;;;;;;57.50;34.20;;;;;;;;;;4904263;29;20084;-95
2024/03/01 00:25:59;;;;;;;60.85;33.40;;;;;;;;;;4904062;29;20063;-94
2024/03/01 00:28:25;;;;;;;76.65;38.15;;;;;;;;;;4903997;29;20032;-94
2024/03/01 00:30:51;;;;;;;66.20;37.13;;;;;;;;;;4904075;29;20061;-95
2024/03/01 00:33:18;;;;;;;63.88;35.42;;;;;;;;;;4904391;29;20032;-94
2024/03/01 00:35:44;;;;;;;85.05;42.65;;;;;;;;;;4904954;29;20028;-93
2024/03/01 00:41:31;;;;;;;107.03;56.10;;;;;;;;;;4934759;29;20050;-94
2024/03/01 00:43:58;;;;;;;71.68;44.03;;;;;;;;;;4935659;29;20287;-94
2024/03/01 00:46:25;;;;;;;73.45;43.80;;;;;;;;;;4938791;29;20044;-95
2024/03/01 00:48:53;;;;;;;81.68;45.78;;;;;;;;;;4923004;29;20024;-96
2024/03/01 00:51:20;;;;;;;93.38;54.17;;;;;;;;;;4922593;29;20051;-94
2024/03/01 00:53:46;;;;;;;110.03;57.47;;;;;;;;;;4922484;29;20039;-95
2024/03/01 00:56:12;;;;;;;98.53;52.85;;;;;;;;;;4922492;29;20493;-95
2024/03/01 00:58:38;;;;;;;98.63;51.75;;;;;;;;;;4922563;29;20027;-93
2024/03/01 01:01:04;;;;;;;78.10;45.35;;;;;;;;;;4922788;29;20031;-95
2024/03/01 01:03:31;;;;;;;74.40;40.97;;;;;;;;;;4922673;29;20027;-94
2024/03/01 01:05:57;;;;;;;80.68;38.92;;;;;;;;;;4922446;29;20126;-94
2024/03/01 01:08:24;;;;;;;74.07;34.72;;;;;;;;;;4922354;29;20027;-95
2024/03/01 01:10:54;;;;;;;86.43;39.70;;;;;;;;;;4922395;29;20408;-92
2024/03/01 01:13:20;;;;;;;84.07;37.97;;;;;;;;;;4922259;29;20031;-94
2024/03/01 01:15:46;;;;;;;82.22;36.70;;;;;;;;;;4922156;29;20031;-95
2024/03/01 01:18:14;;;;;;;88.15;37.80;;;;;;;;;;4921437;29;20111;-95
2024/03/01 01:20:40;;;;;;;91.75;39.28;;;;;;;;;;4922117;29;20027;-95
2024/03/01 01:23:06;;;;;;;75.10;36.03;;;;;;;;;;4920944;29;20027;-93
2024/03/01 01:25:32;;;;;;;82.40;36.22;;;;;;;;;;4912821;29;20034;-95
2024/03/01 01:27:58;;;;;;;69.00;32.60;;;;;;;;;;4922305;29;20501;-94
2024/03/01 01:30:24;;;;;;;74.30;33.50;;;;;;;;;;4922182;29;20443;-95
2024/03/01 01:32:50;;;;;;;68.63;32.13;;;;;;;;;;4921879;29;20031;-95
2024/03/01 01:35:18;;;;;;;78.28;35.80;;;;;;;;;;4911918;29;20032;-95
2024/03/01 01:37:44;;;;;;;69.53;33.72;;;;;;;;;;4902798;29;20524;-94
2024/03/01 01:43:14;;;;;;;58.93;29.23;;;;;;;;;;5233444;23;20067;-94
2024/03/01 01:45:40;;;;;;;53.58;28.45;;;;;;;;;;4901207;29;20029;-94
2024/03/01 01:48:06;;;;;;;51.25;26.83;;;;;;;;;;4899722;29;20395;-95
2024/03/01 01:50:33;;;;;;;54.42;28.90;;;;;;;;;;4900091;29;20520;-93
2024/03/01 01:52:59;;;;;;;55.33;29.00;;;;;;;;;;4899515;29;20033;-94
2024/03/01 01:55:26;;;;;;;60.95;31.17;;;;;;;;;;4899765;29;20024;-94
2024/03/01 01:57:53;;;;;;;56.70;30.88;;;;;;;;;;4902638;29;20028;-93
2024/03/01 02:00:19;;;;;;;60.22;30.33;;;;;;;;;;4899495;29;20029;-94
2024/03/01 02:02:50;;;;;;;59.25;30.73;;;;;;;;;;4901485;29;20041;-93
2024/03/01 02:05:16;;;;;;;63.70;35.55;;;;;;;;;;4902899;29;20508;-93
2024/03/01 02:07:43;;;;;;;48.53;27.90;;;;;;;;;;4902717;29;20047;-94
2024/03/01 02:10:16;;;;;;;56.60;32.03;;;;;;;;;;4899341;29;20024;-94
2024/03/01 02:12:56;;;;;;;57.50;28.60;;;;;;;;;;4918075;29;20032;-94
2024/03/01 02:15:23;;;;;;;55.47;29.23;;;;;;;;;;4899107;29;20595;-95
2024/03/01 02:17:49;;;;;;;58.72;30.15;;;;;;;;;;4901906;29;20030;-94
2024/03/01 02:20:16;;;;;;;63.95;30.42;;;;;;;;;;4899021;29;20029;-94
2024/03/01 02:22:45;;;;;;;60.10;31.10;;;;;;;;;;4901015;29;20028;-94
2024/03/01 02:25:11;;;;;;;57.65;30.08;;;;;;;;;;4899123;29;20036;-94
2024/03/01 02:27:37;;;;;;;54.33;30.48;;;;;;;;;;4897465;29;20505;-92
2024/03/01 02:30:03;;;;;;;63.92;29.80;;;;;;;;;;4902357;29;20121;-92
2024/03/01 02:32:30;;;;;;;54.63;29.20;;;;;;;;;;4902142;29;20036;-94
2024/03/01 02:34:56;;;;;;;55.22;29.50;;;;;;;;;;4901912;29;20030;-92
2024/03/01 02:37:22;;;;;;;55.70;29.90;;;;;;;;;;4901942;29;20038;-93
2024/03/01 02:39:48;;;;;;;58.25;30.63;;;;;;;;;;4901979;29;20031;-94
2024/03/01 02:42:14;;;;;;;52.33;28.95;;;;;;;;;;4898904;29;20406;-94
2024/03/01 02:44:41;;;;;;;59.72;30.65;;;;;;;;;;4900064;29;20052;-94
2024/03/01 02:47:07;;;;;;;55.67;30.17;;;;;;;;;;4901682;29;20130;-94
2024/03/01 02:49:33;;;;;;;49.35;28.35;;;;;;;;;;4901705;29;20031;-94
2024/03/01 02:51:59;;;;;;;59.15;29.95;;;;;;;;;;4898594;29;20025;-94
2024/03/01 02:54:26;;;;;;;61.38;32.28;;;;;;;;;;4898606;29;20021;-94
2024/03/01 02:56:52;;;;;;;53.25;30.42;;;;;;;;;;4901593;29;20036;-94
2024/03/01 02:59:18;;;;;;;64.35;32.60;;;;;;;;;;4898290;29;20482;-95
2024/03/01 03:01:44;;;;;;;61.28;32.65;;;;;;;;;;4900552;29;20039;-94
2024/03/01 03:04:31;;;;;;;57.08;31.05;;;;;;;;;;4900475;29;20032;-94
2024/03/01 03:06:59;;;;;;;58.50;30.52;;;;;;;;;;4891659;29;20602;-94
2024/03/01 03:09:28;;;;;;;67.13;37.08;;;;;;;;;;4898594;29;20181;-93
2024/03/01 03:11:55;;;;;;;60.53;31.85;;;;;;;;;;4889614;29;20065;-94
2024/03/01 03:14:21;;;;;;;66.05;37.58;;;;;;;;;;4898095;29;20055;-94
2024/03/01 03:16:50;;;;;;;73.45;39.08;;;;;;;;;;4901877;29;20056;-94
2024/03/01 03:19:17;;;;;;;68.55;37.05;;;;;;;;;;4912117;29;20016;-91
2024/03/01 03:21:44;;;;;;;77.18;38.08;;;;;;;;;;4923979;29;20035;-93
2024/03/01 03:24:10;;;;;;;72.28;38.03;;;;;;;;;;4899759;29;20033;-94
2024/03/01 03:26:36;;;;;;;62.67;36.45;;;;;;;;;;4899883;29;20120;-93
2024/03/01 03:29:04;;;;;;;66.05;34.50;;;;;;;;;;4898068;29;20025;-94
2024/03/01 03:31:31;;;;;;;70.32;37.80;;;;;;;;;;4898155;29;20427;-93
2024/03/01 03:33:57;;;;;;;85.53;40.95;;;;;;;;;;4897978;29;20386;-94
2024/03/01 03:36:24;;;;;;;79.53;42.47;;;;;;;;;;4897741;29;20053;-94
2024/03/01 03:38:50;;;;;;;89.95;44.05;;;;;;;;;;4900621;29;20393;-94
2024/03/01 03:41:16;;;;;;;69.85;38.20;;;;;;;;;;4897538;29;20029;-94
2024/03/01 03:43:42;;;;;;;70.45;38.45;;;;;;;;;;4899463;29;20083;-94
2024/03/01 03:46:08;;;;;;;69.38;36.78;;;;;;;;;;4898978;29;20109;-94
2024/03/01 03:48:34;;;;;;;72.40;35.58;;;;;;;;;;4901021;29;20039;-94
2024/03/01 03:51:00;;;;;;;60.97;32.42;;;;;;;;;;4901257;29;20445;-94
2024/03/01 03:53:26;;;;;;;61.35;33.25;;;;;;;;;;4900914;29;20032;-94
2024/03/01 03:55:52;;;;;;;57.92;32.22;;;;;;;;;;4900867;29;20446;-94
2024/03/01 03:58:18;;;;;;;63.90;34.40;;;;;;;;;;4900695;29;20024;-94
2024/03/01 04:00:44;;;;;;;61.00;33.97;;;;;;;;;;4900878;29;20025;-94
2024/03/01 04:03:11;;;;;;;61.95;34.70;;;;;;;;;;4900597;29;20043;-94
2024/03/01 04:05:37;;;;;;;63.70;35.75;;;;;;;;;;4901200;29;20035;-95
2024/03/01 04:08:04;;;;;;;67.30;35.97;;;;;;;;;;4898275;29;20029;-93
2024/03/01 04:10:30;;;;;;;59.30;34.22;;;;;;;;;;4898008;29;20025;-94
2024/03/01 04:12:56;;;;;;;58.67;34.53;;;;;;;;;;4897950;29;20025;-94
2024/03/01 04:15:22;;;;;;;57.92;32.85;;;;;;;;;;4898290;29;20416;-94
2024/03/01 04:17:48;;;;;;;50.67;31.92;;;;;;;;;;4894630;29;20061;-93
2024/03/01 04:20:16;;;;;;;56.97;32.35;;;;;;;;;;4901202;29;20115;-94
2024/03/01 04:22:42;;;;;;;56.22;32.88;;;;;;;;;;4901040;29;20473;-94
2024/03/01 04:25:09;;;;;;;66.07;33.25;;;;;;;;;;4900816;29;20033;-93
2024/03/01 04:27:38;;;;;;;54.15;32.85;;;;;;;;;;4901049;29;20076;-94
2024/03/01 04:30:08;;;;;;;54.90;31.85;;;;;;;;;;4897999;29;20029;-94
2024/03/01 04:32:35;;;;;;;56.13;33.67;;;;;;;;;;4897928;29;20060;-96
2024/03/01 04:35:01;;;;;;;59.10;33.88;;;;;;;;;;4912808;29;20037;-93
2024/03/01 04:37:27;;;;;;;50.83;32.58;;;;;;;;;;4919669;29;20044;-95
2024/03/01 04:39:53;;;;;;;61.08;34.28;;;;;;;;;;4903687;29;20031;-93
2024/03/01 04:42:19;;;;;;;55.80;33.17;;;;;;;;;;4891278;29;20036;-95
2024/03/01 04:44:45;;;;;;;62.45;35.10;;;;;;;;;;4887523;29;20041;-95
2024/03/01 04:47:12;;;;;;;55.63;32.45;;;;;;;;;;4881737;29;20486;-95
2024/03/01 04:52:42;;;;;;;45.77;28.67;;;;;;;;;;4900595;29;20040;-95
2024/03/01 04:55:09;;;;;;;53.08;29.98;;;;;;;;;;4885192;29;20033;-94
2024/03/01 04:57:36;;;;;;;55.95;32.08;;;;;;;;;;4885749;29;20047;-95
2024/03/01 05:00:03;;;;;;;54.83;32.78;;;;;;;;;;4885202;29;20115;-94
2024/03/01 05:02:29;;;;;;;53.05;32.70;;;;;;;;;;4885242;29;20035;-93
2024/03/01 05:04:59;;;;;;;57.00;34.85;;;;;;;;;;4885322;29;20107;-94
2024/03/01 05:07:26;;;;;;;49.22;30.80;;;;;;;;;;4884867;29;20490;-94
2024/03/01 05:09:52;;;;;;;45.67;31.40;;;;;;;;;;4899686;29;20043;-93
2024/03/01 05:12:18;;;;;;;60.30;34.83;;;;;;;;;;4905644;29;20036;-95
2024/03/01 05:14:45;;;;;;;51.05;33.53;;;;;;;;;;4902233;29;20035;-95
2024/03/01 05:17:11;;;;;;;52.58;32.92;;;;;;;;;;4903285;29;20028;-94
2024/03/01 05:19:39;;;;;;;60.70;34.15;;;;;;;;;;4903175;29;20067;-94
2024/03/01 05:22:14;;;;;;;59.83;33.50;;;;;;;;;;4903180;29;20024;-95
2024/03/01 05:24:40;;;;;;;60.30;33.30;;;;;;;;;;4903225;29;20032;-94
2024/03/01 05:27:15;;;;;;;45.08;27.17;;;;;;;;;;4903064;29;20144;-94
2024/03/01 05:29:42;;;;;;;58.55;35.17;;;;;;;;;;4903154;29;20024;-94
2024/03/01 05:32:08;;;;;;;53.10;32.35;;;;;;;;;;4900065;29;20037;-94
2024/03/01 05:34:34;;;;;;;67.65;35.05;;;;;;;;;;4900785;29;20029;-95
2024/03/01 05:37:00;;;;;;;60.20;34.15;;;;;;;;;;4902794;29;20394;-94
2024/03/01 05:39:26;;;;;;;54.75;32.90;;;;;;;;;;4902831;29;20036;-94
2024/03/01 05:41:52;;;;;;;52.83;34.10;;;;;;;;;;4902984;29;20123;-95
2024/03/01 05:44:18;;;;;;;62.55;35.45;;;;;;;;;;4902670;29;20078;-94
2024/03/01 05:46:44;;;;;;;57.63;32.88;;;;;;;;;;4902777;29;20036;-93
2024/03/01 05:49:11;;;;;;;66.15;35.50;;;;;;;;;;4902927;29;20032;-94
2024/03/01 05:51:37;;;;;;;49.75;30.52;;;;;;;;;;4903024;29;20060;-95
2024/03/01 05:54:04;;;;;;;53.42;32.22;;;;;;;;;;4903851;29;20059;-94
2024/03/01 05:56:33;;;;;;;55.42;33.75;;;;;;;;;;4906026;29;20036;-96
2024/03/01 05:59:04;;;;;;;55.90;33.03;;;;;;;;;;4916612;29;20035;-96
2024/03/01 06:04:16;;;;;;;56.10;30.48;;;;;;;;;;5271364;23;20067;-95
2024/03/01 06:09:21;;;;;;;46.85;29.17;;;;;;;;;;5124223;23;20058;-93
2024/03/01 06:11:50;;;;;;;49.08;32.25;;;;;;;;;;4962766;29;20011;-96
2024/03/01 06:14:17;;;;;;;54.40;32.60;;;;;;;;;;4951602;29;20042;-93
2024/03/01 06:16:44;;;;;;;47.53;32.20;;;;;;;;;;4940959;29;20027;-94
2024/03/01 06:19:17;;;;;;;43.38;28.00;;;;;;;;;;4946252;29;20039;-96
2024/03/01 06:21:44;;;;;;;44.90;28.52;;;;;;;;;;4943509;29;20059;-92
2024/03/01 06:24:13;;;;;;;49.50;31.05;;;;;;;;;;4940497;29;20034;-94
2024/03/01 06:26:39;;;;;;;41.10;26.80;;;;;;;;;;4945007;29;20102;-94
2024/03/01 06:29:09;;;;;;;37.78;23.20;;;;;;;;;;4944931;29;20062;-95
2024/03/01 06:31:35;;;;;;;47.05;29.42;;;;;;;;;;4940098;29;20122;-94
2024/03/01 06:34:18;;;;;;;39.35;24.92;;;;;;;;;;4940412;29;20031;-94
2024/03/01 06:36:44;;;;;;;44.72;24.88;;;;;;;;;;4961515;28;20015;-93
2024/03/01 06:39:11;;;;;;;39.60;26.05;;;;;;;;;;4959818;28;20045;-95
2024/03/01 06:41:37;;;;;;;38.55;25.10;;;;;;;;;;4942151;29;20452;-93
2024/03/01 06:44:03;;;;;;;34.97;23.17;;;;;;;;;;4941105;29;20031;-93
2024/03/01 06:46:29;;;;;;;33.78;23.85;;;;;;;;;;4940190;29;20100;-94
2024/03/01 06:48:56;;;;;;;38.00;26.27;;;;;;;;;;4940587;29;20028;-94
2024/03/01 06:51:22;;;;;;;35.72;23.92;;;;;;;;;;4939871;29;20042;-94
2024/03/01 06:53:48;;;;;;;35.15;24.88;;;;;;;;;;4942056;29;20027;-94
2024/03/01 06:56:15;;;;;;;36.67;26.13;;;;;;;;;;4943468;29;20027;-94
2024/03/01 06:58:41;;;;;;;35.55;28.65;;;;;;;;;;4949273;29;20106;-94
2024/03/01 07:01:07;;;;;;;36.13;29.85;;;;;;;;;;4947034;29;20122;-93
2024/03/01 07:03:35;;;;;;;35.60;30.23;;;;;;;;;;4942681;29;20066;-93
2024/03/01 07:06:01;;;;;;;37.90;31.13;;;;;;;;;;4949332;29;20034;-94
2024/03/01 07:08:29;;;;;;;42.60;35.53;;;;;;;;;;4950327;29;20071;-94
2024/03/01 07:10:55;;;;;;;38.08;31.83;;;;;;;;;;4948863;28;20031;-94
2024/03/01 07:13:21;;;;;;;33.47;29.13;;;;;;;;;;4941923;29;20058;-95
2024/03/01 07:15:48;;;;;;;33.35;27.17;;;;;;;;;;4959211;28;20043;-95
2024/03/01 07:18:14;;;;;;;32.63;28.77;;;;;;;;;;4946426;29;20071;-95
2024/03/01 07:20:41;;;;;;;43.35;39.00;;;;;;;;;;4948098;29;20014;-95
2024/03/01 07:23:24;;;;;;;39.58;33.70;;;;;;;;;;4959467;29;20473;-92
2024/03/01 07:25:50;;;;;;;43.00;38.63;;;;;;;;;;4941637;29;20031;-94
2024/03/01 07:28:17;;;;;;;37.65;33.67;;;;;;;;;;4939669;29;20424;-93
2024/03/01 07:30:44;;;;;;;31.42;24.67;;;;;;;;;;4940486;29;20050;-94
2024/03/01 07:33:10;;;;;;;33.55;26.77;;;;;;;;;;4941598;29;20396;-95
2024/03/01 07:35:58;;;;;;;33.60;27.27;;;;;;;;;;4944045;29;20034;-96
2024/03/01 07:38:24;;;;;;;35.85;30.92;;;;;;;;;;4942544;29;20027;-95
2024/03/01 07:40:52;;;;;;;38.58;34.67;;;;;;;;;;4959903;28;20027;-94
2024/03/01 07:43:19;;;;;;;40.03;35.78;;;;;;;;;;4924138;29;20094;-94
2024/03/01 07:46:06;;;;;;;29.83;21.33;;;;;;;;;;4943170;29;20031;-94
2024/03/01 07:48:39;;;;;;;37.00;30.98;;;;;;;;;;4963686;29;20035;-94
2024/03/01 07:51:05;;;;;;;39.00;32.25;;;;;;;;;;4940955;29;20512;-94
2024/03/01 07:53:31;;;;;;;50.45;26.85;;;;;;;;;;4940499;29;20028;-93
2024/03/01 07:55:58;;;;;;;40.47;33.03;;;;;;;;;;4940801;29;20497;-92
2024/03/01 07:58:25;;;;;;;37.35;29.83;;;;;;;;;;4948659;29;20030;-93
2024/03/01 08:01:19;;;;;;;35.95;24.75;;;;;;;;;;4946941;29;20031;-92
2024/03/01 08:03:47;;;;;;;36.53;25.50;;;;;;;;;;4934096;29;20031;-94
2024/03/01 08:06:13;;;;;;;36.58;28.75;;;;;;;;;;4925875;29;20130;-95
2024/03/01 08:08:44;;;;;;;31.85;21.92;;;;;;;;;;4944269;28;20114;-92
2024/03/01 08:11:12;;;;;;;35.47;26.67;;;;;;;;;;4960174;28;20059;-95
2024/03/01 08:13:38;;;;;;;33.58;23.77;;;;;;;;;;4929723;29;20035;-94
2024/03/01 08:16:08;;;;;;;29.52;21.67;;;;;;;;;;4957003;28;20028;-95
2024/03/01 08:21:14;;;;;;;38.35;22.50;;;;;;;;;;5072470;23;20142;-92
2024/03/01 08:23:41;;;;;;;32.53;23.10;;;;;;;;;;4942316;29;20439;-92
2024/03/01 08:26:22;;;;;;;37.20;27.23;;;;;;;;;;4941356;29;20134;-93
2024/03/01 08:28:48;;;;;;;36.72;29.17;;;;;;;;;;4943634;29;20035;-94
2024/03/01 08:31:35;;;;;;;35.70;24.15;;;;;;;;;;4948690;29;20030;-93
2024/03/01 08:34:10;;;;;;;37.20;24.67;;;;;;;;;;4942227;29;20464;-93
2024/03/01 08:36:37;;;;;;;34.28;28.60;;;;;;;;;;4963024;29;20082;-93
2024/03/01 08:39:10;;;;;;;37.58;29.10;;;;;;;;;;4950127;29;20059;-93
2024/03/01 08:41:54;;;;;;;37.42;24.10;;;;;;;;;;4943274;29;20483;-92
2024/03/01 08:47:25;;;;;;;29.80;19.20;;;;;;;;;;4940518;29;20110;-87
2024/03/01 08:49:51;;;;;;;29.77;22.27;;;;;;;;;;4923408;29;20377;-90
2024/03/01 08:52:37;;;;;;;28.95;22.27;;;;;;;;;;4923844;29;20083;-93
2024/03/01 08:55:10;;;;;;;29.73;22.63;;;;;;;;;;4923791;29;20023;-89
2024/03/01 08:57:37;;;;;;;31.85;24.10;;;;;;;;;;4923279;29;20044;-90
2024/03/01 09:00:05;;;;;;;30.42;20.98;;;;;;;;;;4923590;29;20033;-91
2024/03/01 09:02:45;;;;;;;33.58;27.42;;;;;;;;;;4955847;29;20074;-93
2024/03/01 09:05:11;;;;;;;29.33;22.50;;;;;;;;;;4953003;29;20384;-91
2024/03/01 09:07:37;;;;;;;31.73;22.27;;;;;;;;;;4958623;28;20063;-91
2024/03/01 09:10:10;;;;;;;34.15;23.67;;;;;;;;;;4951997;29;20023;-91
2024/03/01 09:12:36;;;;;;;31.90;21.40;;;;;;;;;;4958545;29;20049;-91
2024/03/01 09:15:03;;;;;;;31.58;21.45;;;;;;;;;;4951329;29;20271;-90
2024/03/01 09:17:33;;;;;;;28.63;21.33;;;;;;;;;;4958487;29;20027;-92
2024/03/01 09:19:59;;;;;;;31.50;20.55;;;;;;;;;;4941941;28;20039;-91
2024/03/01 09:22:26;;;;;;;32.15;22.45;;;;;;;;;;4942080;29;20027;-91
2024/03/01 09:24:56;;;;;;;32.45;22.63;;;;;;;;;;4944633;29;20030;-90
2024/03/01 09:27:26;;;;;;;31.27;24.83;;;;;;;;;;4946640;29;20042;-90
2024/03/01 09:29:55;;;;;;;37.95;26.80;;;;;;;;;;4951018;29;20122;-91
2024/03/01 09:32:21;;;;;;;35.38;24.20;;;;;;;;;;4952358;29;20094;-91
2024/03/01 09:34:47;;;;;;;32.25;23.35;;;;;;;;;;4942595;29;20024;-92
2024/03/01 09:37:14;;;;;;;29.90;24.42;;;;;;;;;;4952681;28;20040;-91
2024/03/01 09:39:41;;;;;;;34.08;26.08;;;;;;;;;;4958041;28;20132;-91
2024/03/01 09:42:16;;;;;;;33.67;21.88;;;;;;;;;;4960674;28;20015;-87
2024/03/01 09:44:45;;;;;;;33.42;26.67;;;;;;;;;;4974417;28;20091;-92
2024/03/01 09:47:17;;;;;;;31.13;25.73;;;;;;;;;;4946994;29;20039;-90
2024/03/01 09:49:46;;;;;;;35.83;23.02;;;;;;;;;;4942827;29;20023;-92
2024/03/01 09:52:31;;;;;;;34.38;23.88;;;;;;;;;;4942183;29;20031;-91
2024/03/01 09:55:20;;;;;;;35.33;24.88;;;;;;;;;;4941418;29;20027;-92
2024/03/01 09:58:01;;;;;;;34.45;22.33;;;;;;;;;;4936514;29;20035;-91
2024/03/01 10:00:35;;;;;;;32.00;23.02;;;;;;;;;;4941475;29;20035;-93
2024/03/01 10:03:39;;;;;;;27.27;21.95;;;;;;;;;;4942434;29;20030;-93
2024/03/01 10:06:17;;;;;;;30.77;23.65;;;;;;;;;;4941663;29;20046;-93
2024/03/01 10:08:55;;;;;;;36.03;23.10;;;;;;;;;;4942256;29;20142;-93
2024/03/01 10:11:33;;;;;;;31.55;23.30;;;;;;;;;;4942140;29;20023;-92
2024/03/01 10:14:04;;;;;;;35.72;28.15;;;;;;;;;;4934633;29;20039;-92
2024/03/01 10:16:37;;;;;;;71.53;36.95;;;;;;;;;;4942297;29;20023;-92
2024/03/01 10:19:19;;;;;;;53.60;31.63;;;;;;;;;;4947967;28;20070;-93
2024/03/01 10:22:03;;;;;;;69.95;38.42;;;;;;;;;;4958982;28;20059;-92
2024/03/01 10:24:32;;;;;;;41.22;26.35;;;;;;;;;;4959102;29;20118;-92
2024/03/01 10:27:14;;;;;;;30.15;21.90;;;;;;;;;;4945972;29;20045;-92
2024/03/01 10:29:52;;;;;;;29.15;23.85;;;;;;;;;;4947209;29;20075;-91
2024/03/01 10:32:27;;;;;;;32.90;23.50;;;;;;;;;;4952564;29;20396;-92
2024/03/01 10:35:09;;;;;;;32.35;21.50;;;;;;;;;;4964877;29;20027;-92
2024/03/01 10:37:43;;;;;;;34.72;23.75;;;;;;;;;;4945688;29;20035;-91
2024/03/01 10:40:19;;;;;;;32.72;21.90;;;;;;;;;;4945802;29;20031;-91
2024/03/01 10:42:46;;;;;;;33.92;23.10;;;;;;;;;;4958807;29;20031;-90
2024/03/01 10:45:20;;;;;;;39.15;28.35;;;;;;;;;;4950032;29;20113;-91
2024/03/01 10:47:50;;;;;;;32.63;25.90;;;;;;;;;;4941509;29;20035;-91
2024/03/01 10:53:40;;;;;;;34.22;23.88;;;;;;;;;;4958369;29;20041;-92
2024/03/01 10:56:08;;;;;;;33.05;26.45;;;;;;;;;;4943671;29;20078;-91
2024/03/01 10:58:54;;;;;;;35.15;26.52;;;;;;;;;;4962267;28;20011;-93
2024/03/01 11:01:22;;;;;;;34.78;27.23;;;;;;;;;;4941562;29;20041;-92
2024/03/01 11:03:58;;;;;;;33.28;27.52;;;;;;;;;;4940587;29;20110;-93
2024/03/01 11:06:34;;;;;;;39.15;28.75;;;;;;;;;;4953566;29;20082;-92
2024/03/01 11:09:09;;;;;;;34.58;27.45;;;;;;;;;;4946343;29;20039;-92
2024/03/01 11:11:55;;;;;;;33.95;25.90;;;;;;;;;;4942738;29;20131;-92
2024/03/01 11:14:22;;;;;;;33.30;25.38;;;;;;;;;;4955519;29;20030;-94
2024/03/01 11:16:50;;;;;;;37.05;29.98;;;;;;;;;;4957085;28;20396;-93
2024/03/01 11:19:19;;;;;;;34.05;24.00;;;;;;;;;;4952421;29;20065;-92
2024/03/01 11:21:49;;;;;;;34.20;29.08;;;;;;;;;;4949891;28;20054;-91
2024/03/01 11:24:26;;;;;;;32.80;27.08;;;;;;;;;;4956034;29;20023;-92
2024/03/01 11:26:54;;;;;;;37.70;33.78;;;;;;;;;;4957703;29;20098;-92
2024/03/01 11:29:41;;;;;;;34.28;28.90;;;;;;;;;;4956809;29;20074;-94
2024/03/01 11:34:53;;;;;;;35.88;32.08;;;;;;;;;;4982260;23;20047;-93
2024/03/01 11:37:57;;;;;;;32.03;26.83;;;;;;;;;;4957428;29;20500;-94
2024/03/01 11:40:41;;;;;;;32.63;28.05;;;;;;;;;;4955679;28;20031;-94
2024/03/01 11:43:17;;;;;;;31.40;25.02;;;;;;;;;;4943288;29;20114;-92
2024/03/01 11:46:02;;;;;;;35.17;28.85;;;;;;;;;;4940525;29;20034;-93
2024/03/01 11:48:39;;;;;;;29.05;23.73;;;;;;;;;;4946924;29;20063;-94
2024/03/01 11:51:24;;;;;;;34.08;24.92;;;;;;;;;;4932329;29;20036;-94
2024/03/01 11:54:09;;;;;;;32.50;25.92;;;;;;;;;;4926929;28;20040;-95
2024/03/01 11:57:01;;;;;;;36.17;26.63;;;;;;;;;;4933491;29;20366;-92
2024/03/01 11:59:46;;;;;;;38.08;27.63;;;;;;;;;;4940021;29;20477;-93
2024/03/01 12:02:28;;;;;;;33.30;24.38;;;;;;;;;;4945295;29;20114;-93
2024/03/01 12:05:09;;;;;;;31.67;25.25;;;;;;;;;;4956195;29;20024;-92
2024/03/01 12:07:57;;;;;;;35.63;26.27;;;;;;;;;;4954565;29;20043;-92
2024/03/01 12:10:23;;;;;;;33.72;25.05;;;;;;;;;;4942919;29;20121;-92
2024/03/01 12:12:57;;;;;;;30.83;22.90;;;;;;;;;;4943160;29;20101;-93
2024/03/01 12:15:46;;;;;;;33.20;23.98;;;;;;;;;;4943789;29;20027;-92
2024/03/01 12:18:19;;;;;;;31.05;24.63;;;;;;;;;;4935398;29;20093;-94
2024/03/01 12:20:52;;;;;;;34.15;27.13;;;;;;;;;;4960187;29;20051;-92
2024/03/01 12:23:31;;;;;;;31.00;24.23;;;;;;;;;;4943315;29;20106;-93
2024/03/01 12:26:01;;;;;;;29.35;23.67;;;;;;;;;;4943651;29;20031;-94
2024/03/01 12:28:31;;;;;;;33.88;27.15;;;;;;;;;;4936130;29;20039;-93
2024/03/01 12:31:15;;;;;;;32.83;25.65;;;;;;;;;;4923726;29;20024;-93
2024/03/01 12:33:54;;;;;;;30.55;22.20;;;;;;;;;;4923548;29;20082;-93
2024/03/01 12:36:28;;;;;;;28.13;23.00;;;;;;;;;;4923739;29;20059;-93
2024/03/01 12:39:08;;;;;;;33.47;25.88;;;;;;;;;;4923933;29;20027;-93
2024/03/01 12:41:54;;;;;;;30.25;25.65;;;;;;;;;;4923771;29;20043;-93
2024/03/01 12:44:27;;;;;;;28.55;22.40;;;;;;;;;;4925669;29;20515;-93
2024/03/01 12:47:12;;;;;;;31.48;23.80;;;;;;;;;;4925147;29;20110;-94
2024/03/01 12:49:41;;;;;;;32.40;25.15;;;;;;;;;;4926026;29;20031;-93
2024/03/01 12:52:26;;;;;;;31.70;26.83;;;;;;;;;;4926143;29;20027;-92
2024/03/01 12:54:52;;;;;;;32.50;26.50;;;;;;;;;;4931243;29;20113;-91
2024/03/01 12:57:24;;;;;;;37.63;29.88;;;;;;;;;;4943702;29;20023;-93
2024/03/01 13:00:15;;;;;;;36.67;30.23;;;;;;;;;;4943022;29;20114;-92
2024/03/01 13:02:59;;;;;;;31.98;26.90;;;;;;;;;;4942880;29;20063;-92
2024/03/01 13:05:26;;;;;;;35.53;30.33;;;;;;;;;;4942699;29;20028;-92
2024/03/01 13:07:55;;;;;;;33.78;25.48;;;;;;;;;;4961437;28;20032;-91
2024/03/01 13:10:23;;;;;;;30.13;26.90;;;;;;;;;;4943528;29;20027;-91
2024/03/01 13:13:03;;;;;;;36.47;28.33;;;;;;;;;;4941391;29;20031;-94
2024/03/01 13:15:47;;;;;;;34.67;25.48;;;;;;;;;;4943973;28;20047;-92
2024/03/01 13:18:15;;;;;;;35.97;27.58;;;;;;;;;;4951222;28;20038;-92
2024/03/01 13:20:51;;;;;;;35.58;28.95;;;;;;;;;;4944151;29;20369;-92
2024/03/01 13:23:23;;;;;;;39.30;24.27;;;;;;;;;;4944885;29;20422;-90
2024/03/01 13:26:21;;;;;;;;;;;;;;;;;;;;;
2024/03/01 13:32:11;;;;;;;35.15;29.05;;;;;;;;;;4969915;29;20050;-93
2024/03/01 13:34:49;;;;;;;32.00;28.40;;;;;;;;;;5274122;23;20003;-93
2024/03/01 13:37:19;;;;;;;33.13;28.80;;;;;;;;;;4904903;29;20041;-92
2024/03/01 13:39:55;;;;;;;30.77;27.50;;;;;;;;;;4902244;29;20060;-93
2024/03/01 13:45:28;;;;;;;32.58;25.02;;;;;;;;;;4901129;29;20036;-92
2024/03/01 13:48:07;;;;;;;36.08;32.38;;;;;;;;;;4894812;29;20037;-93
2024/03/01 13:50:52;;;;;;;32.55;27.25;;;;;;;;;;4902463;29;20036;-91
2024/03/01 13:53:19;;;;;;;30.30;26.90;;;;;;;;;;4888011;29;20046;-96
2024/03/01 13:55:47;;;;;;;34.78;31.05;;;;;;;;;;4886750;29;20033;-93
2024/03/01 13:58:16;;;;;;;33.55;30.05;;;;;;;;;;4888569;29;20036;-92
2024/03/01 14:00:59;;;;;;;37.72;33.85;;;;;;;;;;4891997;29;20044;-93
2024/03/01 14:03:35;;;;;;;;;;;;;;;;;;;;;
2024/03/01 14:06:03;;;;;;;30.55;26.63;;;;;;;;;;4904298;29;20115;-93
2024/03/01 14:08:29;;;;;;;34.70;27.35;;;;;;;;;;4886793;29;20084;-92
2024/03/01 14:11:01;;;;;;;34.47;29.98;;;;;;;;;;4886243;29;20028;-91
2024/03/01 14:13:28;;;;;;;32.22;23.73;;;;;;;;;;4887535;29;20466;-90
2024/03/01 14:16:03;;;;;;;35.08;31.40;;;;;;;;;;4901571;29;20021;-91
2024/03/01 14:18:32;;;;;;;32.47;28.63;;;;;;;;;;4884021;29;20033;-91
2024/03/01 14:20:59;;;;;;;35.60;31.92;;;;;;;;;;4883721;29;20036;-90
2024/03/01 14:23:26;;;;;;;31.98;27.50;;;;;;;;;;4884032;29;20032;-90
2024/03/01 14:25:52;;;;;;;36.85;30.55;;;;;;;;;;4883844;29;20032;-90
2024/03/01 14:28:19;;;;;;;41.90;32.58;;;;;;;;;;4884019;29;20029;-91
2024/03/01 14:30:45;;;;;;;34.38;29.23;;;;;;;;;;4884127;29;20032;-92
2024/03/01 14:33:13;;;;;;;33.85;29.15;;;;;;;;;;4884543;29;20032;-91
2024/03/01 14:35:39;;;;;;;35.13;29.23;;;;;;;;;;4883956;29;20108;-94
2024/03/01 14:38:11;;;;;;;33.55;29.55;;;;;;;;;;4883816;29;20033;-90
2024/03/01 14:40:37;;;;;;;29.58;26.40;;;;;;;;;;4884343;29;20092;-91
2024/03/01 14:43:12;;;;;;;31.08;27.83;;;;;;;;;;4883639;29;20031;-91
2024/03/01 14:45:39;;;;;;;31.35;28.10;;;;;;;;;;4883768;29;20067;-91
2024/03/01 14:48:12;;;;;;;37.08;29.55;;;;;;;;;;4883662;29;20474;-92
2024/03/01 14:50:43;;;;;;;34.55;26.42;;;;;;;;;;4883435;29;20095;-92
2024/03/01 14:53:28;;;;;;;33.15;28.80;;;;;;;;;;4883621;29;20028;-92
2024/03/01 14:56:14;;;;;;;28.13;24.15;;;;;;;;;;4896432;29;20057;-92
2024/03/01 14:58:43;;;;;;;33.40;30.13;;;;;;;;;;4883371;29;20032;-92
2024/03/01 15:01:12;;;;;;;30.90;27.10;;;;;;;;;;4878667;29;20127;-92
2024/03/01 15:03:40;;;;;;;32.05;28.35;;;;;;;;;;4873600;29;20048;-91
2024/03/01 15:06:07;;;;;;;36.42;32.72;;;;;;;;;;4881354;29;20025;-93
2024/03/01 15:08:41;;;;;;;29.80;24.90;;;;;;;;;;4883536;29;20098;-91
2024/03/01 15:11:07;;;;;;;31.70;28.27;;;;;;;;;;4880681;29;20043;-92